Time;durP1;ratioP1;P1;durP2;ratioP2;P2;SDS_P1;SDS_P2;PMS_P1;PMS_P2;Temp;Humidity;BMP_temperature;BMP_pressure;BME280_temperature;BME280_humidity;BME280_pressure;Samples;Min_cycle;Max_cycle;Signal;HPM_P1;HPM_P2
2022/08/03 00:04:33;;;;;;;10.18;5.60;;;;;;;18.95;100.00;99167.19;4353328;33;20036;-75
2022/08/03 00:06:59;;;;;;;10.20;6.05;;;;;;;19.10;100.00;99168.81;4352908;33;20057;-75
2022/08/03 00:09:26;;;;;;;8.80;6.80;;;;;;;18.92;100.00;99135.06;4353604;33;20031;-74
2022/08/03 00:11:52;;;;;;;11.77;6.45;;;;;;;18.83;100.00;99132.22;4350890;33;20494;-74
2022/08/03 00:14:18;;;;;;;9.35;6.43;;;;;;;18.82;100.00;99131.38;4336839;33;20040;-75
2022/08/03 00:16:44;;;;;;;7.70;5.75;;;;;;;18.75;100.00;99135.62;4362607;32;20023;-74
2022/08/03 00:19:11;;;;;;;8.25;6.30;;;;;;;18.91;100.00;99155.25;4366907;32;20056;-75
2022/08/03 00:21:38;;;;;;;10.45;6.18;;;;;;;18.80;100.00;99128.16;4369789;32;20057;-74
2022/08/03 00:24:11;;;;;;;8.43;6.40;;;;;;;18.81;100.00;99128.94;4355360;32;20071;-75
2022/08/03 00:26:37;;;;;;;11.23;7.60;;;;;;;19.08;100.00;99160.13;4355985;32;20054;-74
2022/08/03 00:29:03;;;;;;;10.20;6.57;;;;;;;19.09;100.00;99156.31;4366270;32;20053;-74
2022/08/03 00:31:30;;;;;;;11.25;7.07;;;;;;;18.96;100.00;99147.81;4370681;32;20472;-74
2022/08/03 00:33:56;;;;;;;13.75;6.65;;;;;;;18.71;100.00;99121.78;4366647;32;20038;-73
2022/08/03 00:36:23;;;;;;;7.03;6.30;;;;;;;18.65;100.00;99125.69;4369992;32;20100;-73
2022/08/03 00:38:49;;;;;;;11.00;6.78;;;;;;;18.65;100.00;99125.69;4381327;32;20341;-73
2022/08/03 00:41:16;;;;;;;9.48;7.25;;;;;;;18.79;100.00;99159.25;4385418;32;20039;-73
2022/08/03 00:43:43;;;;;;;8.05;6.75;;;;;;;18.60;100.00;99126.59;4383869;32;20086;-74
2022/08/03 00:46:10;;;;;;;8.93;7.05;;;;;;;18.75;100.00;99163.72;4384864;32;20116;-74
2022/08/03 00:48:36;;;;;;;8.45;6.57;;;;;;;18.46;100.00;99123.87;4385123;32;20509;-74
2022/08/03 00:51:03;;;;;;;9.00;7.35;;;;;;;18.44;100.00;99115.16;4384949;32;20086;-74
2022/08/03 00:53:30;;;;;;;11.98;6.57;;;;;;;18.46;100.00;99123.03;4385313;32;20035;-73
2022/08/03 00:55:58;;;;;;;12.93;6.78;;;;;;;18.64;100.00;99156.81;4394479;32;20380;-73
2022/08/03 00:58:24;;;;;;;8.98;6.95;;;;;;;18.60;100.00;99150.34;4400390;32;20212;-73
2022/08/03 01:00:50;;;;;;;10.73;7.10;;;;;;;18.62;100.00;99159.03;4402381;32;20052;-74
2022/08/03 01:03:17;;;;;;;12.10;7.72;;;;;;;18.59;100.00;99154.16;4402410;32;20046;-74
2022/08/03 01:05:54;;;;;;;11.52;7.87;;;;;;;18.74;100.00;99156.63;4401282;32;20376;-73
2022/08/03 01:08:27;;;;;;;9.90;7.15;;;;;;;18.51;100.00;99118.31;4402567;32;20055;-74
2022/08/03 01:11:09;;;;;;;7.05;6.35;;;;;;;18.45;100.00;99124.97;4402659;32;20024;-74
2022/08/03 01:14:19;;;;;;;12.15;6.55;;;;;;;18.59;100.00;99156.91;4399755;32;20068;-73
2022/08/03 01:17:01;;;;;;;8.73;6.07;;;;;;;18.48;100.00;99154.34;4401742;32;20076;-74
2022/08/03 01:19:28;;;;;;;11.27;6.47;;;;;;;18.38;100.00;99143.62;4402419;32;20038;-73
2022/08/03 01:22:00;;;;;;;7.95;5.60;;;;;;;18.55;100.00;99158.62;4401822;32;20061;-73
2022/08/03 01:24:34;;;;;;;;;;;;;;;18.48;100.00;99154.34;4402169;32;20462;-74
2022/08/03 01:27:28;;;;;;;12.68;6.37;;;;;;;18.51;100.00;99159.22;4400576;32;20814;-73
2022/08/03 01:30:08;;;;;;;10.43;6.20;;;;;;;18.38;100.00;99159.16;4402228;32;20345;-73
2022/08/03 01:32:45;;;;;;;12.60;5.95;;;;;;;18.42;100.00;99163.72;4403512;32;20065;-74
2022/08/03 01:35:15;;;;;;;13.45;5.70;;;;;;;18.38;100.00;99164.63;4417402;32;20042;-73
2022/08/03 01:38:04;;;;;;;8.65;5.28;;;;;;;18.60;100.00;99166.69;4417463;32;20096;-74
2022/08/03 01:40:35;;;;;;;7.72;4.90;;;;;;;18.59;100.00;99165.06;4417275;32;20034;-74
2022/08/03 01:43:07;;;;;;;13.02;4.90;;;;;;;18.38;100.00;99135.47;4417192;32;20068;-73
2022/08/03 01:45:35;;;;;;;13.50;5.47;;;;;;;18.60;100.00;99170.22;4397780;32;20054;-74
2022/08/03 01:48:04;;;;;;;11.40;4.35;;;;;;;18.69;100.00;99164.91;4398331;32;20074;-74
2022/08/03 01:50:31;;;;;;;7.22;4.65;;;;;;;18.39;100.00;99145.25;4399471;32;20045;-73
2022/08/03 01:52:57;;;;;;;8.10;3.92;;;;;;;18.28;100.00;99132.91;4399888;32;20409;-74
2022/08/03 01:55:27;;;;;;;14.82;4.37;;;;;;;18.38;100.00;99154.53;4400028;32;20060;-74
2022/08/03 01:57:55;;;;;;;11.38;5.30;;;;;;;18.33;100.00;99151.88;4397801;32;20053;-74
2022/08/03 02:00:22;;;;;;;6.43;4.62;;;;;;;18.09;100.00;99125.59;4399895;32;20076;-74
2022/08/03 02:02:51;;;;;;;16.58;5.50;;;;;;;18.19;100.00;99140.97;4398603;32;20034;-74
2022/08/03 02:05:19;;;;;;;6.70;4.47;;;;;;;18.20;100.00;99152.66;4399168;32;20034;-74
2022/08/03 02:07:46;;;;;;;8.77;4.93;;;;;;;18.18;100.00;99155.69;4365831;32;20041;-74
2022/08/03 02:10:18;;;;;;;7.65;5.07;;;;;;;18.01;100.00;99122.72;4369591;32;20069;-74
2022/08/03 02:12:46;;;;;;;8.85;5.03;;;;;;;18.13;100.00;99142.13;4369061;32;20109;-74
2022/08/03 02:15:15;;;;;;;6.82;4.78;;;;;;;18.08;100.00;99145.75;4367990;32;20086;-74
2022/08/03 02:17:49;;;;;;;5.15;4.65;;;;;;;17.96;100.00;99137.22;4352827;32;20039;-74
2022/08/03 02:20:17;;;;;;;5.68;5.00;;;;;;;17.86;100.00;99099.22;4353781;32;20023;-73
2022/08/03 02:22:45;;;;;;;7.43;5.30;;;;;;;17.87;100.00;99117.16;4353970;32;20044;-73
2022/08/03 02:25:13;;;;;;;8.13;4.90;;;;;;;17.63;100.00;99088.13;4352087;32;20039;-74
2022/08/03 02:27:47;;;;;;;6.85;5.43;;;;;;;17.89;100.00;99153.13;4354007;32;20958;-74
2022/08/03 02:30:14;;;;;;;14.10;5.57;;;;;;;17.72;100.00;99119.00;4353587;32;20066;-73
2022/08/03 02:32:47;;;;;;;7.30;6.07;;;;;;;17.87;100.00;99155.28;4352839;32;20044;-73
2022/08/03 02:35:16;;;;;;;6.95;5.75;;;;;;;17.73;100.00;99120.62;4352646;32;20069;-73
2022/08/03 02:37:47;;;;;;;9.15;5.80;;;;;;;18.04;100.00;99155.59;4353317;32;20032;-73
2022/08/03 02:40:16;;;;;;;16.33;7.07;;;;;;;17.96;100.00;99126.31;4354126;32;20422;-73
2022/08/03 02:42:45;;;;;;;10.10;6.25;;;;;;;17.96;100.00;99150.84;4353069;32;20071;-73
2022/08/03 02:45:14;;;;;;;8.27;5.37;;;;;;;17.77;100.00;99118.97;4359838;32;20063;-74
2022/08/03 02:47:42;;;;;;;7.28;6.57;;;;;;;18.02;100.00;99152.38;4368836;32;20424;-74
2022/08/03 02:50:11;;;;;;;9.23;6.07;;;;;;;17.82;100.00;99128.12;4384060;32;20027;-73
2022/08/03 02:52:38;;;;;;;8.13;6.40;;;;;;;18.03;100.00;99148.56;4381768;32;20055;-74
2022/08/03 02:55:09;;;;;;;9.00;6.57;;;;;;;18.03;100.00;99159.47;4387395;32;20049;-74
2022/08/03 02:57:36;;;;;;;7.70;6.25;;;;;;;17.87;100.00;99160.75;4398845;32;20064;-74
2022/08/03 03:00:04;;;;;;;15.15;6.28;;;;;;;17.88;100.00;99156.94;4398806;32;20043;-73
2022/08/03 03:02:30;;;;;;;7.03;5.95;;;;;;;17.40;100.00;99093.31;4398195;32;20035;-73
2022/08/03 03:04:59;;;;;;;9.30;6.57;;;;;;;17.81;100.00;99162.75;4396735;32;20065;-73
2022/08/03 03:07:26;;;;;;;9.73;5.87;;;;;;;17.82;100.00;99169.78;4428944;32;20085;-73
2022/08/03 03:09:53;;;;;;;14.00;6.28;;;;;;;17.72;100.00;99140.78;4431204;32;20099;-74
2022/08/03 03:12:20;;;;;;;9.77;6.50;;;;;;;17.75;100.00;99140.22;4431423;32;20038;-74
2022/08/03 03:14:46;;;;;;;6.93;5.18;;;;;;;17.86;100.00;99159.12;4430731;32;20060;-74
2022/08/03 03:17:15;;;;;;;6.78;5.62;;;;;;;17.85;100.00;99165.69;4429700;32;20077;-74
2022/08/03 03:19:44;;;;;;;11.15;6.60;;;;;;;17.58;100.00;99131.75;4431371;32;20179;-73
2022/08/03 03:22:11;;;;;;;9.10;6.43;;;;;;;17.85;100.00;99173.84;4430916;32;20056;-73
2022/08/03 03:24:39;;;;;;;8.52;6.30;;;;;;;17.81;100.00;99156.50;4431201;32;20039;-73
2022/08/03 03:27:07;;;;;;;7.62;6.57;;;;;;;17.81;100.00;99160.03;4427655;32;20359;-75
2022/08/03 03:29:34;;;;;;;10.82;6.55;;;;;;;17.85;100.00;99152.06;4431322;32;20090;-75
2022/08/03 03:32:01;;;;;;;14.45;6.35;;;;;;;17.65;100.00;99129.47;4431082;32;20038;-76
2022/08/03 03:34:29;;;;;;;13.75;7.35;;;;;;;17.93;100.00;99165.88;4429314;32;20042;-74
2022/08/03 03:36:56;;;;;;;11.60;6.53;;;;;;;17.82;100.00;99126.22;4429929;32;20053;-73
2022/08/03 03:39:22;;;;;;;15.32;7.40;;;;;;;17.76;100.00;99117.34;4430492;32;20081;-74
2022/08/03 03:41:48;;;;;;;8.13;6.62;;;;;;;17.84;100.00;99128.66;4430996;32;20071;-74
2022/08/03 03:44:15;;;;;;;10.60;6.60;;;;;;;17.84;100.00;99125.91;4431084;32;20042;-74
2022/08/03 03:46:42;;;;;;;9.98;7.32;;;;;;;17.79;100.00;99127.62;4431020;32;20063;-75
2022/08/03 03:49:09;;;;;;;10.93;6.35;;;;;;;18.06;100.00;99142.53;4429879;32;20383;-74
2022/08/03 03:51:35;;;;;;;13.02;7.85;;;;;;;17.83;100.00;99127.03;4430201;32;20046;-74
2022/08/03 03:54:05;;;;;;;9.23;6.82;;;;;;;18.05;100.00;99162.69;4430833;32;20042;-74
2022/08/03 03:56:32;;;;;;;14.27;6.70;;;;;;;18.19;100.00;99172.81;4400757;32;20030;-74
2022/08/03 03:58:58;;;;;;;8.60;6.80;;;;;;;18.21;100.00;99168.72;4386183;32;20051;-74
2022/08/03 04:01:25;;;;;;;12.73;7.30;;;;;;;18.05;100.00;99140.09;4384136;32;20434;-74
2022/08/03 04:03:51;;;;;;;15.55;8.40;;;;;;;18.21;100.00;99148.84;4385486;32;20055;-74
2022/08/03 04:11:52;;;;;;;11.77;7.50;;;;;;;18.24;100.00;99151.75;4354594;32;20048;-74
2022/08/03 04:14:36;;;;;;;11.25;7.57;;;;;;;18.64;100.00;99175.91;4355017;32;20040;-74
2022/08/03 04:17:06;;;;;;;10.30;7.40;;;;;;;18.85;100.00;99181.84;4353738;32;20052;-73
2022/08/03 04:19:51;;;;;;;11.55;8.27;;;;;;;18.78;100.00;99184.94;4356072;32;20074;-73
2022/08/03 04:22:22;;;;;;;15.65;7.32;;;;;;;18.83;100.00;99184.03;4355680;32;20426;-72
2022/08/03 04:24:52;;;;;;;11.90;8.23;;;;;;;18.45;100.00;99110.53;4353756;32;20074;-74
2022/08/03 04:27:26;;;;;;;11.20;8.35;;;;;;;19.05;100.00;99189.66;4355541;32;20028;-72
2022/08/03 04:29:56;;;;;;;10.07;7.20;;;;;;;19.23;100.00;99184.41;4361981;32;20423;-74
2022/08/03 04:32:27;;;;;;;19.27;7.40;;;;;;;19.23;100.00;99185.19;4367654;32;20057;-73
2022/08/03 04:34:54;;;;;;;13.30;7.12;;;;;;;19.21;100.00;99165.59;4370637;32;20048;-73
2022/08/03 04:37:42;;;;;;;7.95;6.57;;;;;;;19.50;100.00;99196.44;4391690;32;20060;-74
2022/08/03 04:40:13;;;;;;;12.82;8.02;;;;;;;19.45;100.00;99164.56;4417654;32;20053;-74
2022/08/03 04:42:41;;;;;;;9.65;7.72;;;;;;;19.73;100.00;99189.09;4418100;32;20034;-75
2022/08/03 04:45:11;;;;;;;13.00;7.82;;;;;;;19.57;100.00;99167.56;4418031;32;20158;-73
2022/08/03 04:47:39;;;;;;;10.85;7.85;;;;;;;19.62;100.00;99158.47;4381544;32;20069;-73
2022/08/03 04:50:06;;;;;;;14.57;7.85;;;;;;;20.08;100.00;99203.09;4355850;32;20941;-74
2022/08/03 04:52:33;;;;;;;13.48;7.82;;;;;;;20.25;100.00;99208.72;4355163;32;20035;-75
2022/08/03 04:55:00;;;;;;;10.75;7.95;;;;;;;20.37;100.00;99207.34;4355701;32;20091;-72
2022/08/03 04:57:26;;;;;;;9.63;7.05;;;;;;;20.48;100.00;99200.50;4326354;33;20058;-73
2022/08/03 04:59:53;;;;;;;14.40;8.73;;;;;;;20.50;100.00;99203.75;4355400;32;20054;-73
2022/08/03 05:02:20;;;;;;;11.23;8.10;;;;;;;20.57;100.00;99209.59;4354864;32;20171;-73
2022/08/03 05:04:47;;;;;;;18.73;9.35;;;;;;;20.66;100.00;99202.28;4355389;32;20043;-73
2022/08/03 05:07:15;;;;;;;19.55;9.20;;;;;;;20.59;100.00;99169.06;4352501;32;20434;-74
2022/08/03 05:09:43;;;;;;;18.98;9.05;;;;;;;20.94;100.00;99202.09;4353233;32;20457;-74
2022/08/03 05:12:09;;;;;;;12.60;9.73;;;;;;;21.11;100.00;99208.78;4354893;32;20031;-74
2022/08/03 05:14:37;;;;;;;17.45;10.63;;;;;;;21.03;100.00;99178.31;4354536;32;20023;-74
2022/08/03 05:17:10;;;;;;;15.80;9.70;;;;;;;21.32;100.00;99195.34;4353429;32;20048;-74
2022/08/03 05:19:36;;;;;;;26.17;8.70;;;;;;;21.47;100.00;99203.09;4366138;32;20035;-74
2022/08/03 05:22:02;;;;;;;12.73;8.38;;;;;;;21.38;100.00;99178.44;4382402;32;20027;-74
2022/08/03 05:24:29;;;;;;;16.92;8.13;;;;;;;21.56;100.00;99206.72;4383732;32;20053;-74
2022/08/03 05:26:55;;;;;;;18.25;9.30;;;;;;;21.41;100.00;99188.78;4384196;32;20042;-75
2022/08/03 05:29:22;;;;;;;14.73;11.63;;;;;;;21.58;100.00;99181.75;4382272;32;20053;-75
2022/08/03 05:31:48;;;;;;;27.45;15.73;;;;;;;21.85;100.00;99218.22;4384905;32;20459;-75
2022/08/03 05:34:15;;;;;;;15.73;12.40;;;;;;;21.89;100.00;99202.72;4382692;32;20100;-73
2022/08/03 05:36:41;;;;;;;19.40;9.23;;;;;;;22.03;100.00;99202.59;4382621;32;20361;-73
2022/08/03 05:39:07;;;;;;;21.02;9.02;;;;;;;22.09;100.00;99207.59;4382552;32;20027;-74
2022/08/03 05:41:34;;;;;;;18.40;8.95;;;;;;;22.18;100.00;99217.75;4384889;32;20043;-73
2022/08/03 05:44:01;;;;;;;16.35;10.38;;;;;;;22.02;100.00;99196.31;4369472;32;20057;-74
2022/08/03 05:46:28;;;;;;;21.55;7.60;;;;;;;22.16;100.00;99211.78;4368732;32;20107;-74
2022/08/03 05:48:54;;;;;;;29.12;8.50;;;;;;;21.95;100.00;99195.97;4369238;32;20116;-72
2022/08/03 05:51:20;;;;;;;20.50;9.77;;;;;;;22.01;100.00;99211.13;4378639;32;20101;-72
2022/08/03 05:53:47;;;;;;;13.13;7.97;;;;;;;21.99;100.00;99207.91;4380891;32;20500;-72
2022/08/03 05:56:14;;;;;;;17.62;9.30;;;;;;;21.95;100.00;99196.78;4381436;32;20365;-73
2022/08/03 05:58:44;;;;;;;16.37;8.93;;;;;;;22.01;100.00;99194.69;4384355;32;20061;-73
2022/08/03 06:01:11;;;;;;;17.63;8.17;;;;;;;22.10;100.00;99190.00;4384295;32;20051;-73
2022/08/03 06:03:37;;;;;;;12.80;7.53;;;;;;;22.19;100.00;99194.69;4381583;32;20584;-73
2022/08/03 06:06:04;;;;;;;11.85;8.85;;;;;;;22.33;100.00;99189.06;4383319;32;20106;-74
2022/08/03 06:08:30;;;;;;;10.73;8.18;;;;;;;22.37;100.00;99201.81;4383957;32;20039;-73
2022/08/03 06:10:57;;;;;;;10.90;7.47;;;;;;;22.53;100.00;99226.00;4382656;32;20065;-74
2022/08/03 06:13:24;;;;;;;16.05;7.62;;;;;;;22.40;100.00;99190.19;4380542;32;20065;-74
2022/08/03 06:15:50;;;;;;;12.48;7.68;;;;;;;22.72;100.00;99223.72;4408724;32;20026;-73
2022/08/03 06:18:17;;;;;;;19.20;7.78;;;;;;;22.82;100.00;99230.81;4428594;32;20726;-74
2022/08/03 06:20:43;;;;;;;14.90;9.10;;;;;;;22.72;100.00;99198.19;4430543;32;20042;-73
2022/08/03 06:23:09;;;;;;;12.18;9.30;;;;;;;22.89;100.00;99231.09;4419618;32;20438;-74
2022/08/03 06:25:36;;;;;;;15.13;9.15;;;;;;;22.83;100.00;99200.28;4416233;32;20566;-74
2022/08/03 06:28:03;;;;;;;26.08;11.15;;;;;;;22.68;100.00;99178.84;4412983;32;20034;-73
2022/08/03 06:30:30;;;;;;;25.08;9.48;;;;;;;22.92;100.00;99202.19;4420423;32;20088;-74
2022/08/03 06:32:57;;;;;;;25.27;8.18;;;;;;;23.05;100.00;99231.37;4414970;32;20089;-74
2022/08/03 06:35:23;;;;;;;27.00;7.97;;;;;;;22.87;100.00;99197.69;4382318;32;20039;-75
2022/08/03 06:37:50;;;;;;;20.85;8.13;;;;;;;23.18;100.00;99222.16;4375557;32;20035;-73
2022/08/03 06:40:21;;;;;;;17.30;7.80;;;;;;;23.16;100.00;99201.63;4373516;32;20077;-74
2022/08/03 06:42:48;;;;;;;23.48;7.00;;;;;;;23.35;100.00;99232.25;4365412;32;20077;-73
2022/08/03 06:45:14;;;;;;;26.50;6.57;;;;;;;23.36;100.00;99230.31;4367458;32;20040;-73
2022/08/03 06:47:40;;;;;;;22.73;6.30;;;;;;;23.43;100.00;99230.59;4367806;32;20506;-73
2022/08/03 06:50:08;;;;;;;10.80;5.93;;;;;;;23.30;100.00;99237.94;4366198;32;20453;-73
2022/08/03 06:52:34;;;;;;;17.85;9.10;;;;;;;23.62;100.00;99237.63;4364786;32;20159;-74
2022/08/03 06:55:01;;;;;;;14.68;5.78;;;;;;;23.31;100.00;99201.09;4358451;32;20377;-74
2022/08/03 06:57:27;;;;;;;13.48;5.62;;;;;;;23.24;100.00;99216.47;4368204;32;20047;-74
2022/08/03 06:59:55;;;;;;;8.40;5.87;;;;;;;23.55;100.00;99213.41;4367357;32;20091;-74
2022/08/03 07:02:21;;;;;;;8.55;5.90;;;;;;;23.99;100.00;99246.16;4367226;32;20039;-74
2022/08/03 07:04:48;;;;;;;26.90;4.50;;;;;;;23.91;100.00;99218.38;4367398;32;20031;-74
2022/08/03 07:07:14;;;;;;;11.55;3.62;;;;;;;23.76;100.00;99213.47;4370806;32;20066;-74
2022/08/03 07:09:41;;;;;;;7.82;4.03;;;;;;;24.02;100.00;99212.50;4387383;32;20064;-73
2022/08/03 07:12:07;;;;;;;8.25;3.53;;;;;;;24.08;100.00;99225.72;4391906;32;20438;-73
2022/08/03 07:14:34;;;;;;;18.05;4.35;;;;;;;24.62;100.00;99246.19;4416064;32;20042;-73
2022/08/03 07:17:06;;;;;;;13.15;4.12;;;;;;;24.56;100.00;99225.47;4414727;32;20415;-72
2022/08/03 07:19:33;;;;;;;10.15;4.20;;;;;;;24.62;100.00;99185.63;4396884;32;20181;-72
2022/08/03 07:21:59;;;;;;;12.68;3.75;;;;;;;24.64;100.00;99225.41;4396287;32;20031;-72
2022/08/03 07:24:25;;;;;;;9.60;3.62;;;;;;;24.91;100.00;99252.69;4381715;32;20047;-72
2022/08/03 07:26:52;;;;;;;9.43;4.32;;;;;;;24.83;100.00;99219.38;4382823;32;20195;-73
2022/08/03 07:29:18;;;;;;;7.10;3.70;;;;;;;24.90;100.00;99249.13;4381934;32;20040;-73
2022/08/03 07:31:45;;;;;;;8.52;4.40;;;;;;;24.94;100.00;99247.28;4379838;32;20104;-73
2022/08/03 07:34:11;;;;;;;6.70;3.80;;;;;;;24.84;100.00;99225.69;4378774;32;21447;-72
2022/08/03 07:36:37;;;;;;;8.35;4.25;;;;;;;24.93;100.00;99225.59;4365102;32;20039;-72
2022/08/03 07:39:04;;;;;;;9.65;3.50;;;;;;;25.44;100.00;99248.19;4379447;32;20162;-72
2022/08/03 07:41:30;;;;;;;8.25;3.03;;;;;;;25.35;100.00;99240.06;4379283;32;20031;-73
2022/08/03 07:43:57;;;;;;;4.40;2.67;;;;;;;24.95;100.00;99215.84;4369473;32;20047;-76
2022/08/03 07:46:23;;;;;;;10.63;3.50;;;;;;;25.08;100.00;99226.88;4367545;32;20051;-72
2022/08/03 07:48:49;;;;;;;15.48;3.30;;;;;;;25.13;100.00;99255.03;4367188;32;20035;-72
2022/08/03 07:51:16;;;;;;;7.95;3.15;;;;;;;24.79;100.00;99215.69;4374136;32;20101;-72
2022/08/03 07:53:42;;;;;;;10.77;3.72;;;;;;;24.94;100.00;99247.28;4381743;32;20061;-73
2022/08/03 07:56:09;;;;;;;3.72;2.92;;;;;;;25.15;100.00;99246.41;4379217;32;20034;-73
2022/08/03 07:58:35;;;;;;;4.25;2.47;;;;;;;24.58;100.00;99223.22;4382814;32;20051;-72
2022/08/03 08:01:02;;;;;;;20.23;2.65;;;;;;;24.70;100.00;99215.00;4376596;32;20477;-72
2022/08/03 08:03:29;;;;;;;9.77;2.80;;;;;;;25.01;100.00;99253.03;4336101;33;20048;-72
2022/08/03 08:05:55;;;;;;;6.47;2.53;;;;;;;24.83;100.00;99251.63;4335474;33;20044;-72
2022/08/03 08:08:21;;;;;;;3.55;2.20;;;;;;;25.19;100.00;99244.56;4340503;32;20044;-72
2022/08/03 08:10:48;;;;;;;3.62;2.25;;;;;;;25.01;100.00;99222.75;4367884;32;20024;-73
2022/08/03 08:13:14;;;;;;;6.95;2.10;;;;;;;25.04;100.00;99223.22;4367452;32;20087;-72
2022/08/03 08:15:40;;;;;;;3.08;2.80;;;;;;;25.24;100.00;99233.34;4367927;32;20043;-73
2022/08/03 08:18:07;;;;;;;4.45;2.65;;;;;;;25.01;100.00;99231.00;4364467;32;20390;-73
2022/08/03 08:20:37;;;;;;;4.80;2.75;;;;;;;25.27;100.00;99256.66;4367483;32;20316;-73
2022/08/03 08:23:07;;;;;;;9.93;3.25;;;;;;;25.30;100.00;99220.97;4371938;32;20104;-74
2022/08/03 08:25:33;;;;;;;4.75;3.05;;;;;;;25.14;100.00;99250.31;4396088;32;20034;-73
2022/08/03 08:28:01;;;;;;;10.30;3.22;;;;;;;25.44;100.00;99247.41;4395879;32;20111;-73
2022/08/03 08:30:28;;;;;;;9.48;2.97;;;;;;;25.42;100.00;99256.00;4371134;32;20974;-73
2022/08/03 08:32:54;;;;;;;6.93;2.65;;;;;;;25.33;100.00;99231.31;4366698;32;20083;-74
2022/08/03 08:35:21;;;;;;;8.18;3.03;;;;;;;25.06;100.00;99209.91;4405129;32;20038;-75
2022/08/03 08:37:47;;;;;;;6.57;3.37;;;;;;;25.30;100.00;99226.47;4413915;32;20060;-71
2022/08/03 08:40:14;;;;;;;5.35;3.10;;;;;;;25.44;100.00;99231.66;4378884;32;20038;-76
2022/08/03 08:42:42;;;;;;;43.92;3.95;;;;;;;25.01;100.00;99225.50;4386352;32;20076;-71
2022/08/03 08:45:10;;;;;;;6.68;2.83;;;;;;;25.36;100.00;99241.63;4395954;32;20043;-72
2022/08/03 08:47:38;;;;;;;6.00;3.08;;;;;;;25.27;100.00;99232.63;4399584;32;20030;-72
2022/08/03 08:50:07;;;;;;;8.30;3.22;;;;;;;25.84;100.00;99257.72;4395546;32;20133;-72
2022/08/03 08:52:34;;;;;;;42.08;5.68;;;;;;;25.80;100.00;99265.06;4384943;32;20082;-72
2022/08/03 08:55:05;;;;;;;3.10;2.55;;;;;;;25.90;100.00;99259.09;4385000;32;20354;-70
2022/08/03 08:57:37;;;;;;;106.28;7.03;;;;;;;26.04;100.00;99265.06;4383612;32;20065;-74
2022/08/03 09:00:14;;;;;;;14.20;4.30;;;;;;;26.13;100.00;99261.37;4383986;32;20027;-73
2022/08/03 09:02:42;;;;;;;20.12;4.87;;;;;;;26.01;100.00;99238.19;4384325;32;20035;-73
2022/08/03 09:05:17;;;;;;;6.43;3.83;;;;;;;26.17;100.00;99240.22;4388462;32;20093;-74
